Humidity-temperature Sensor

Selected Measurement Type: Relative Humidity

 
Relative Humidity [%]     6 entries per hour
Showing data from 8/15/2020 (00:00:00 Z) to 8/14/2020 (00:01:00 Z)
Previous Next [ Day | 3-Days | 7-Days ]
First Last
Prev [ Day | 3-Days | 7-Days ] Next
First Last

Start Time:     :
End Time:     :     
Time (in GMT) :00 :50 :40 :30 :20 :10
Previous Next [ Day | 3-Days | 7-Days ]
First Last
Prev [ Day | 3-Days | 7-Days ] Next
First Last


123 => good data
MM => data is determined as missing
-- => data not received/configured
Back to Top Back to Top
8/15/2020 00:00 to 23:10 73.18 73.37 74.91 74.99 74.79 75.45
8/14/2020 23:00 to 22:10 75.68 75.93 75.22 74.64 74.04 74.24
8/14/2020 22:00 to 21:10 73.50 74.39 74.47 74.08 75.26 75.60
8/14/2020 21:00 to 20:10 75.70 75.01 73.41 72.42 71.00 70.73
8/14/2020 20:00 to 19:10 70.88 70.61 72.42 71.77 72.56 72.60
8/14/2020 19:00 to 18:10 71.92 71.50 70.88 70.00 69.80 70.42
8/14/2020 18:00 to 17:10 69.01 70.48 76.26 80.17 80.69 80.81
8/14/2020 17:00 to 16:10 81.27 79.63 78.82 78.71 78.90 77.76
8/14/2020 16:00 to 15:10 77.94 77.18 76.49 76.99 77.92 78.28
8/14/2020 15:00 to 14:10 79.19 76.74 75.35 76.61 77.47 77.03
8/14/2020 14:00 to 13:10 77.01 76.59 76.70 77.63 76.22 76.39
8/14/2020 13:00 to 12:10 75.45 75.22 75.14 74.76 75.10 74.18
8/14/2020 12:00 to 11:10 74.02 73.29 73.60 73.00 73.31 73.52
8/14/2020 11:00 to 10:10 73.41 73.79 72.75 73.41 74.02 73.06
8/14/2020 10:00 to 9:10 74.08 74.35 74.04 74.79 73.91 74.66
8/14/2020 09:00 to 8:10 74.10 74.35 74.49 75.60 75.43 73.89
8/14/2020 08:00 to 7:10 72.52 74.16 73.81 73.62 74.41 74.83
8/14/2020 07:00 to 6:10 74.66 74.14 74.56 73.77 74.31 74.02
8/14/2020 06:00 to 5:10 74.85 74.81 75.08 75.51 75.33 74.33
8/14/2020 05:00 to 4:10 73.62 73.54 74.20 74.70 75.33 74.60
8/14/2020 04:00 to 3:10 74.58 75.10 75.14 75.85 75.18 75.39
8/14/2020 03:00 to 2:10 76.18 75.20 73.81 73.91 76.07 76.61
8/14/2020 02:00 to 1:10 76.68 75.57 76.07 75.80 75.62 74.16
8/14/2020 01:00 to 0:10 73.60 73.56 74.02 74.47 75.60 75.53